Time;durP1;ratioP1;P1;durP2;ratioP2;P2;SDS_P1;SDS_P2;PMS_P1;PMS_P2;Temp;Humidity;BMP_temperature;BMP_pressure;BME280_temperature;BME280_humidity;BME280_pressure;Samples;Min_cycle;Max_cycle;Signal;HPM_P1;HPM_P2
2022/11/19 00:01:07;;;;;;;5.03;1.85;;;6.70;86.20;;;5.02;100.00;95077.28;4969536;28;20213;-67
2022/11/19 00:03:34;;;;;;;5.20;2.40;;;6.80;86.30;;;5.05;100.00;95074.31;4969767;28;20075;-66
2022/11/19 00:06:09;;;;;;;3.47;2.03;;;6.80;86.20;;;5.07;100.00;95078.38;4970044;28;20109;-65
2022/11/19 00:08:35;;;;;;;2.63;1.60;;;6.80;86.30;;;5.10;100.00;95079.81;4970232;28;20029;-66
2022/11/19 00:11:07;;;;;;;3.30;1.75;;;6.90;86.00;;;5.11;100.00;95068.38;4986644;28;20156;-66
2022/11/19 00:13:33;;;;;;;2.55;1.58;;;6.90;85.90;;;5.12;100.00;95064.78;4987176;28;20118;-66
2022/11/19 00:16:08;;;;;;;2.72;1.50;;;6.90;85.90;;;5.12;100.00;95062.19;5002355;28;20592;-66
2022/11/19 00:18:34;;;;;;;3.80;1.52;;;6.90;85.90;;;5.12;100.00;95064.78;4986350;28;20113;-66
2022/11/19 00:21:09;;;;;;;4.05;1.52;;;6.90;85.80;;;5.12;100.00;95054.38;4969664;28;20198;-66
2022/11/19 00:23:35;;;;;;;3.33;1.50;;;6.90;85.50;;;5.10;100.00;95056.34;5003750;28;20561;-66
2022/11/19 00:26:11;;;;;;;2.53;1.48;;;6.80;85.30;;;5.07;100.00;95057.53;5004501;28;20029;-66
2022/11/19 00:28:37;;;;;;;2.28;1.60;;;6.80;85.40;;;5.04;100.00;95051.88;4986787;28;20037;-66
2022/11/19 00:31:13;;;;;;;5.15;1.25;;;6.80;85.30;;;5.03;100.00;95058.06;5002819;28;20589;-66
2022/11/19 00:33:40;;;;;;;2.70;1.70;;;6.80;85.10;;;5.00;100.00;95061.03;4984765;28;20685;-66
2022/11/19 00:36:08;;;;;;;3.47;1.95;;;6.70;85.20;;;4.98;100.00;95068.19;4987258;28;20690;-66
2022/11/19 00:38:34;;;;;;;3.88;2.35;;;6.70;85.00;;;4.92;100.00;95060.13;4985979;28;20101;-66
2022/11/19 00:41:00;;;;;;;2.50;1.67;;;6.60;85.10;;;4.89;100.00;95068.28;4971272;28;20427;-66
2022/11/19 00:46:10;;;;;;;2.58;1.70;;;6.60;85.40;;;4.87;100.00;95070.28;4985739;28;20124;-66
2022/11/19 00:48:39;;;;;;;4.90;1.60;;;6.60;85.40;;;4.88;100.00;95071.88;5011406;28;20040;-66
2022/11/19 00:51:06;;;;;;;2.50;1.38;;;6.70;85.50;;;4.90;100.00;95077.72;4950903;28;20587;-65
2022/11/19 00:53:32;;;;;;;5.80;1.45;;;6.70;85.50;;;4.91;100.00;95083.75;4949962;28;20118;-65
2022/11/19 00:56:03;;;;;;;3.00;1.23;;;6.70;85.70;;;4.92;100.00;95075.75;4967434;28;20028;-66
2022/11/19 00:58:29;;;;;;;2.05;1.20;;;6.70;85.60;;;4.97;100.00;95079.59;4949939;28;20131;-65
2022/11/19 01:00:55;;;;;;;2.30;1.02;;;6.80;85.60;;;5.00;100.00;95082.69;4933271;28;20234;-65
2022/11/19 01:03:22;;;;;;;2.67;1.30;;;6.80;85.40;;;5.02;100.00;95085.13;4949556;28;20342;-65
2022/11/19 01:05:48;;;;;;;3.72;1.20;;;6.80;85.10;;;5.06;100.00;95086.38;4980782;28;20110;-66
2022/11/19 01:08:14;;;;;;;4.20;1.45;;;6.90;85.00;;;5.09;100.00;95086.00;4968769;28;20435;-66
2022/11/19 01:10:39;;;;;;;2.97;1.10;;;7.00;84.90;;;5.12;100.00;95088.25;4969076;28;20033;-65
2022/11/19 01:15:50;;;;;;;2.85;0.90;;;7.10;84.60;;;5.14;100.00;95088.88;4987745;28;20839;-66
2022/11/19 01:18:16;;;;;;;2.42;1.17;;;7.00;84.50;;;5.14;100.00;95088.88;4984462;28;20037;-66
2022/11/19 01:20:42;;;;;;;3.50;1.13;;;7.00;84.30;;;5.15;100.00;95082.66;4965370;28;20050;-66
2022/11/19 01:23:08;;;;;;;1.65;0.90;;;7.00;84.40;;;5.15;100.00;95078.25;4948105;28;20070;-66
2022/11/19 01:25:35;;;;;;;2.50;0.80;;;7.00;84.30;;;5.15;100.00;95075.66;4964807;28;20353;-66
2022/11/19 01:28:01;;;;;;;10.27;7.40;;;7.00;84.40;;;5.17;100.00;95078.09;4998954;28;20102;-66
2022/11/19 01:30:27;;;;;;;6.25;3.80;;;7.00;84.40;;;5.16;100.00;95079.06;4964440;28;20059;-66
2022/11/19 01:32:53;;;;;;;4.10;1.58;;;6.90;84.50;;;5.15;100.00;95085.28;4964253;28;20566;-66
2022/11/19 01:35:19;;;;;;;3.95;1.15;;;6.80;84.40;;;5.15;100.00;95080.06;4998154;28;20045;-66
2022/11/19 01:37:45;;;;;;;1.83;0.90;;;6.90;84.70;;;5.15;100.00;95086.09;4982363;28;20342;-65
2022/11/19 01:40:12;;;;;;;2.38;1.05;;;6.90;84.50;;;5.13;100.00;95076.84;4981481;28;20072;-66
2022/11/19 01:42:52;;;;;;;1.75;1.13;;;6.80;84.50;;;5.14;100.00;95091.47;4964113;28;20662;-66
2022/11/19 01:45:33;;;;;;;4.28;1.70;;;6.80;84.70;;;5.14;100.00;95091.47;4981286;28;20053;-66
2022/11/19 01:48:15;;;;;;;5.95;1.88;;;6.80;84.60;;;5.15;100.00;95090.50;4980057;28;20152;-66
2022/11/19 01:51:10;;;;;;;3.05;1.50;;;6.90;84.70;;;5.16;100.00;95097.31;4996988;28;20555;-66
2022/11/19 01:53:36;;;;;;;5.05;1.70;;;6.90;84.90;;;5.15;100.00;95093.91;4979336;28;20601;-66
2022/11/19 01:56:04;;;;;;;3.35;1.60;;;6.80;84.60;;;5.16;100.00;95092.09;4964446;28;20064;-66
2022/11/19 01:58:41;;;;;;;3.42;1.80;;;6.90;84.90;;;5.17;100.00;95091.13;4981213;28;20065;-66
2022/11/19 02:01:07;;;;;;;4.07;2.10;;;6.90;84.80;;;5.15;100.00;95100.91;4964545;28;20029;-66
2022/11/19 02:03:33;;;;;;;3.70;2.00;;;6.80;84.70;;;5.16;100.00;95098.13;4964329;28;20052;-65
2022/11/19 02:06:00;;;;;;;5.20;2.70;;;6.90;84.70;;;5.17;100.00;95098.94;4948465;28;20389;-65
2022/11/19 02:08:46;;;;;;;4.30;2.30;;;6.90;84.80;;;5.17;100.00;95101.53;4941573;28;20059;-65
2022/11/19 02:11:43;;;;;;;3.53;2.40;;;6.80;84.70;;;5.20;100.00;95107.22;4933232;28;20038;-66
2022/11/19 02:14:53;;;;;;;6.18;2.42;;;6.90;84.90;;;5.21;100.00;95097.63;4981703;28;20041;-66
2022/11/19 02:17:53;;;;;;;3.80;2.45;;;7.00;84.60;;;5.23;100.00;95090.41;4981356;28;20214;-66
2022/11/19 02:20:25;;;;;;;6.40;2.90;;;7.00;84.40;;;5.24;100.00;95089.44;4980277;28;20040;-65
2022/11/19 02:23:30;;;;;;;6.55;2.70;;;7.00;84.50;;;5.25;100.00;95095.44;4983334;28;20567;-66
2022/11/19 02:26:47;;;;;;;6.40;3.45;;;7.00;84.20;;;5.24;100.00;95099.84;4981295;28;20037;-65
2022/11/19 02:29:28;;;;;;;4.25;2.88;;;6.90;84.20;;;5.25;100.00;95106.69;4962087;28;20029;-66
2022/11/19 02:31:57;;;;;;;;;;;6.90;83.90;;;5.23;100.00;95101.66;4977803;28;20045;-67
2022/11/19 02:35:00;;;;;;;6.55;3.03;;;6.90;84.20;;;5.25;100.00;95106.69;4999580;28;19912;-66
2022/11/19 02:37:35;;;;;;;7.05;3.85;;;6.90;84.10;;;5.27;100.00;95104.69;4987165;28;20033;-65
2022/11/19 02:40:14;;;;;;;8.50;3.72;;;7.00;84.20;;;5.28;100.00;95110.72;5001975;28;20032;-65
2022/11/19 02:42:53;;;;;;;5.20;3.47;;;7.00;84.00;;;5.28;100.00;95103.72;4984923;28;20538;-67
2022/11/19 02:45:28;;;;;;;7.25;3.97;;;7.00;83.90;;;5.29;100.00;95113.16;4999733;28;20060;-66
2022/11/19 02:48:00;;;;;;;7.10;3.92;;;7.00;83.80;;;5.31;100.00;95113.78;4974374;28;20045;-66
2022/11/19 02:50:41;;;;;;;7.53;3.60;;;7.00;83.90;;;5.32;100.00;95107.56;4963852;28;20154;-66
2022/11/19 02:53:07;;;;;;;14.57;7.35;;;7.10;84.00;;;5.33;100.00;95109.19;4963595;28;20080;-66
2022/11/19 02:55:33;;;;;;;11.45;6.95;;;7.10;84.30;;;5.36;100.00;95108.03;4963267;28;20354;-66
2022/11/19 03:04:28;;;;;;;7.22;4.25;;;7.10;84.10;;;5.35;100.00;95107.22;4980283;28;20060;-66
2022/11/19 03:06:33;;;;;;;10.48;4.60;;;7.10;83.60;;;5.34;100.00;95102.19;4985569;28;20130;-67
2022/11/19 03:08:59;;;;;;;7.68;4.53;;;7.10;83.50;;;5.35;100.00;95106.41;4968932;28;20032;-66
2022/11/19 03:11:29;;;;;;;6.72;4.43;;;7.10;83.70;;;5.36;100.00;95108.81;4982652;28;20036;-66
2022/11/19 03:17:20;;;;;;;6.78;4.30;;;7.10;83.80;;;5.38;100.00;95116.47;5000435;28;20223;-65
2022/11/19 03:20:17;;;;;;;6.85;4.38;;;7.10;83.50;;;5.38;100.00;95121.69;4999976;28;20056;-66
2022/11/19 03:22:50;;;;;;;8.63;4.72;;;7.10;83.70;;;5.39;100.00;95118.09;4999672;28;20028;-65
2022/11/19 03:25:52;;;;;;;7.43;4.60;;;7.20;83.70;;;5.41;100.00;95119.50;4983598;28;20033;-65
2022/11/19 03:28:24;;;;;;;;;;;7.20;83.50;;;5.41;100.00;95126.53;4995632;28;20032;-65
2022/11/19 03:30:50;;;;;;;7.32;4.60;;;7.20;83.60;;;5.42;100.00;95128.16;4999686;28;19912;-65
2022/11/19 03:33:28;;;;;;;6.93;4.45;;;7.20;83.50;;;5.40;100.00;95128.31;4984166;28;20059;-65
2022/11/19 03:35:58;;;;;;;5.80;3.85;;;7.10;83.30;;;5.38;100.00;95130.31;4966929;28;20548;-65
2022/11/19 03:38:31;;;;;;;10.07;4.30;;;7.10;83.50;;;5.38;100.00;95127.69;5000736;28;20033;-65
2022/11/19 03:40:57;;;;;;;6.45;3.70;;;7.10;83.70;;;5.38;100.00;95132.09;4983465;28;20875;-64
2022/11/19 03:43:26;;;;;;;7.60;3.70;;;7.10;83.30;;;5.37;100.00;95130.50;4982875;28;20033;-65
2022/11/19 03:45:53;;;;;;;5.72;3.63;;;7.10;83.50;;;5.35;100.00;95133.28;4983094;28;20601;-65
2022/11/19 03:48:20;;;;;;;5.28;3.35;;;7.10;83.30;;;5.36;100.00;95140.13;5002910;28;20036;-65
2022/11/19 03:50:57;;;;;;;6.35;3.65;;;7.10;83.40;;;5.36;100.00;95137.50;4967001;28;20555;-65
2022/11/19 03:53:23;;;;;;;6.10;3.45;;;7.10;83.50;;;5.35;100.00;95138.50;4966731;28;20033;-65
2022/11/19 03:56:10;;;;;;;3.63;2.95;;;7.00;83.40;;;5.35;100.00;95133.28;4981936;28;20400;-65
2022/11/19 03:58:39;;;;;;;4.13;3.22;;;7.00;83.50;;;5.36;100.00;95139.31;4983250;28;20044;-65
2022/11/19 04:01:05;;;;;;;8.55;3.30;;;7.10;83.40;;;5.34;100.00;95136.88;4983141;28;20056;-65
2022/11/19 04:03:31;;;;;;;4.82;2.85;;;7.00;83.40;;;5.33;100.00;95135.25;4949119;28;20342;-65
2022/11/19 04:05:57;;;;;;;7.07;3.33;;;7.00;83.30;;;5.32;100.00;95138.84;4985770;28;20081;-66
2022/11/19 04:08:23;;;;;;;6.65;3.20;;;7.00;83.90;;;5.31;100.00;95137.25;4947801;28;20317;-65
2022/11/19 04:10:49;;;;;;;5.93;3.05;;;7.00;84.10;;;5.31;100.00;95133.81;5004466;28;20391;-65
2022/11/19 04:13:14;;;;;;;5.68;3.20;;;7.00;84.10;;;5.29;100.00;95136.63;4978791;28;20322;-66
2022/11/19 04:15:41;;;;;;;5.05;3.10;;;6.90;84.20;;;5.27;100.00;95138.59;4985114;28;20070;-65
2022/11/19 04:18:07;;;;;;;4.50;2.80;;;6.90;84.10;;;5.21;100.00;95134.91;4985978;28;20028;-65
2022/11/19 04:20:32;;;;;;;7.53;3.08;;;6.90;84.30;;;5.18;100.00;95143.06;4969762;28;20379;-66
2022/11/19 04:22:58;;;;;;;6.30;2.97;;;6.80;84.20;;;5.15;100.00;95147.84;4985779;28;20331;-65
2022/11/19 04:25:24;;;;;;;7.00;3.10;;;6.80;84.30;;;5.12;100.00;95149.00;4990803;28;20298;-64
2022/11/19 04:27:50;;;;;;;6.10;2.80;;;6.80;84.30;;;5.11;100.00;95149.19;4982669;28;20271;-67
2022/11/19 04:30:16;;;;;;;3.40;2.40;;;6.70;84.30;;;5.08;100.00;95157.38;4971125;28;20240;-66
2022/11/19 04:32:42;;;;;;;8.40;2.80;;;6.70;84.30;;;5.07;100.00;95155.75;4970231;28;20118;-68
2022/11/19 04:35:08;;;;;;;5.55;2.78;;;6.80;84.50;;;5.07;100.00;95155.75;4970154;28;20430;-66
2022/11/19 04:37:34;;;;;;;4.40;2.53;;;6.70;84.20;;;5.06;100.00;95148.91;4985861;28;20033;-69
2022/11/19 04:40:00;;;;;;;4.25;2.63;;;6.80;84.30;;;5.06;100.00;95156.75;4985872;28;20347;-65
2022/11/19 04:42:26;;;;;;;5.03;2.30;;;6.70;84.10;;;5.05;100.00;95157.72;5002157;28;20471;-65
2022/11/19 04:44:52;;;;;;;5.40;2.58;;;6.70;84.40;;;5.06;100.00;95159.34;4985874;28;20418;-65
2022/11/19 04:47:18;;;;;;;3.97;2.30;;;6.80;84.10;;;5.06;100.00;95154.13;4969064;28;20040;-65
2022/11/19 04:49:43;;;;;;;3.63;2.20;;;6.70;84.10;;;5.06;100.00;95154.94;4982741;28;20404;-65
2022/11/19 04:52:09;;;;;;;7.60;2.45;;;6.70;84.20;;;5.06;100.00;95148.91;4956105;28;20317;-65
2022/11/19 04:54:35;;;;;;;5.60;2.30;;;6.70;84.10;;;5.07;100.00;95155.75;5002877;28;20094;-66
2022/11/19 04:57:01;;;;;;;3.35;2.30;;;6.70;84.10;;;5.07;100.00;95158.34;5003331;28;20443;-66
2022/11/19 04:59:27;;;;;;;2.92;2.17;;;6.70;84.10;;;5.07;100.00;95155.75;4984554;28;20063;-67
2022/11/19 05:01:53;;;;;;;6.68;2.30;;;6.80;84.10;;;5.08;100.00;95146.94;4987239;28;20024;-66
2022/11/19 05:04:19;;;;;;;6.75;2.30;;;6.80;84.00;;;5.08;100.00;95146.94;4985898;28;20293;-65
2022/11/19 05:06:45;;;;;;;4.60;2.47;;;6.80;84.00;;;5.07;100.00;95150.53;4985152;28;20361;-66
2022/11/19 05:09:10;;;;;;;4.20;2.17;;;6.70;83.80;;;5.06;100.00;95143.72;4984886;28;20245;-65
2022/11/19 05:11:36;;;;;;;4.38;2.15;;;6.70;84.00;;;5.05;100.00;95147.28;5001053;28;20260;-65
2022/11/19 05:14:02;;;;;;;4.10;2.30;;;6.70;84.30;;;5.04;100.00;95162.13;5001631;28;20475;-66
2022/11/19 05:16:28;;;;;;;3.72;2.17;;;6.70;84.20;;;5.04;100.00;95150.91;4983850;28;20500;-65
2022/11/19 05:18:54;;;;;;;5.75;2.88;;;6.70;84.20;;;5.04;100.00;95153.50;4971815;28;20037;-65
2022/11/19 05:21:20;;;;;;;7.20;2.60;;;6.70;84.20;;;5.05;100.00;95157.72;4999159;28;20044;-68
2022/11/19 05:23:46;;;;;;;6.40;3.53;;;6.70;84.10;;;5.06;100.00;95156.75;4965453;28;20402;-68
2022/11/19 05:26:12;;;;;;;4.82;2.75;;;6.80;84.20;;;5.06;100.00;95159.34;4985467;28;20202;-67
2022/11/19 05:28:37;;;;;;;3.53;2.45;;;6.80;84.10;;;5.07;100.00;95150.53;4968341;28;20434;-71
2022/11/19 05:31:03;;;;;;;3.28;2.10;;;6.80;84.10;;;5.07;100.00;95155.75;4969975;28;20210;-70
2022/11/19 05:33:29;;;;;;;3.20;2.45;;;6.80;83.90;;;5.07;100.00;95155.75;4968223;28;20029;-70
2022/11/19 05:35:55;;;;;;;5.15;2.42;;;6.80;83.80;;;5.05;100.00;95153.31;4972136;28;20319;-70
2022/11/19 05:38:21;;;;;;;3.47;2.28;;;6.70;83.90;;;5.03;100.00;95151.88;4987182;28;20353;-69
2022/11/19 05:40:47;;;;;;;3.78;2.05;;;6.70;83.90;;;5.03;100.00;95157.09;4985165;28;20357;-69
2022/11/19 05:43:13;;;;;;;3.03;2.00;;;6.70;83.90;;;5.00;100.00;95152.25;4940729;28;20573;-70
2022/11/19 05:45:39;;;;;;;3.85;2.20;;;6.60;83.90;;;4.97;100.00;95147.34;5001450;28;20047;-70
2022/11/19 05:48:05;;;;;;;3.67;2.20;;;6.60;84.00;;;4.93;100.00;95152.94;5003345;28;20028;-70
2022/11/19 05:50:31;;;;;;;3.58;2.38;;;6.60;84.30;;;4.90;100.00;95155.09;4969643;28;20055;-69
2022/11/19 05:52:58;;;;;;;5.00;2.00;;;6.60;84.00;;;4.90;100.00;95161.09;4952526;28;20520;-70
2022/11/19 05:55:24;;;;;;;5.78;3.60;;;6.60;84.20;;;4.89;100.00;95169.91;4952125;28;20060;-69
2022/11/19 05:57:50;;;;;;;8.45;6.00;;;6.60;84.50;;;4.89;100.00;95163.88;4984804;28;20445;-70
2022/11/19 06:00:17;;;;;;;5.25;3.63;;;6.60;84.70;;;4.89;100.00;95169.91;4986354;28;20033;-71
2022/11/19 06:02:43;;;;;;;3.53;2.13;;;6.60;84.70;;;4.90;100.00;95166.31;5002664;28;20056;-71
2022/11/19 06:05:09;;;;;;;4.88;2.20;;;6.70;84.60;;;4.92;100.00;95179.16;4985841;28;20277;-72
2022/11/19 06:07:35;;;;;;;10.30;7.88;;;6.70;84.70;;;4.97;100.00;95178.63;4968202;28;20067;-71
2022/11/19 06:10:01;;;;;;;30.50;20.80;;;6.80;84.90;;;5.00;100.00;95186.13;4985298;28;20209;-72
2022/11/19 06:12:27;;;;;;;21.60;15.15;;;6.90;85.00;;;5.03;100.00;95190.97;4985584;28;20214;-71
2022/11/19 06:14:53;;;;;;;9.75;5.57;;;6.90;84.60;;;5.05;100.00;95189.81;4968639;28;20044;-70
2022/11/19 06:17:19;;;;;;;11.68;8.73;;;6.90;84.30;;;5.07;100.00;95187.03;5001858;28;20198;-70
2022/11/19 06:19:45;;;;;;;6.90;3.63;;;6.90;84.00;;;5.09;100.00;95185.03;4985607;28;20286;-70
2022/11/19 06:22:11;;;;;;;7.28;3.05;;;7.00;84.00;;;5.11;100.00;95188.28;4952699;28;20036;-70
2022/11/19 06:24:37;;;;;;;6.50;3.25;;;7.00;83.90;;;5.14;100.00;95187.94;4970154;28;20373;-69
2022/11/19 06:27:03;;;;;;;3.97;2.63;;;7.10;84.00;;;5.14;100.00;95193.13;4952385;28;20376;-69
2022/11/19 06:29:28;;;;;;;5.65;2.42;;;7.00;84.00;;;5.15;100.00;95184.31;4968291;28;20325;-69
2022/11/19 06:31:54;;;;;;;3.10;2.20;;;7.00;83.90;;;5.15;100.00;95190.34;4985491;28;20187;-69
2022/11/19 06:34:20;;;;;;;3.35;1.85;;;7.00;84.00;;;5.16;100.00;95196.38;4985431;28;20178;-69
2022/11/19 06:36:46;;;;;;;4.60;2.85;;;7.00;84.20;;;5.16;100.00;95202.41;4985208;28;20033;-69
2022/11/19 06:39:12;;;;;;;3.58;2.60;;;7.00;84.20;;;5.17;100.00;95192.78;4985210;28;20372;-70
2022/11/19 06:41:38;;;;;;;4.68;3.05;;;7.00;84.20;;;5.17;100.00;95200.59;4951483;28;20316;-70
2022/11/19 06:44:04;;;;;;;3.63;2.30;;;7.00;84.40;;;5.21;100.00;95199.28;4953111;28;20282;-69
2022/11/19 06:46:30;;;;;;;4.38;2.50;;;7.00;84.30;;;5.21;100.00;95196.69;4968763;28;20136;-69
2022/11/19 06:48:56;;;;;;;4.63;2.00;;;7.00;84.00;;;5.21;100.00;95202.69;4968704;28;20426;-70
2022/11/19 06:51:22;;;;;;;5.03;2.40;;;7.00;84.30;;;5.22;100.00;95195.69;4968871;28;20493;-69
2022/11/19 06:53:48;;;;;;;4.50;2.40;;;7.00;84.50;;;5.23;100.00;95202.53;4984761;28;20337;-70
2022/11/19 06:56:13;;;;;;;4.43;2.60;;;7.00;84.30;;;5.24;100.00;95209.34;4971505;28;20032;-70
2022/11/19 06:58:39;;;;;;;3.65;2.00;;;7.00;84.40;;;5.26;100.00;95204.75;4984501;28;20194;-70
2022/11/19 07:01:05;;;;;;;6.22;3.78;;;7.00;84.10;;;5.26;100.00;95212.59;5001247;28;20270;-69
2022/11/19 07:03:31;;;;;;;8.55;6.03;;;7.10;84.40;;;5.28;100.00;95210.59;5002380;28;20433;-70
2022/11/19 07:05:59;;;;;;;4.15;2.60;;;7.10;84.10;;;5.31;100.00;95215.47;4988042;28;20036;-69
2022/11/19 07:08:25;;;;;;;5.45;3.40;;;7.10;84.00;;;5.31;100.00;95209.44;4968849;28;20025;-71
2022/11/19 07:10:51;;;;;;;4.80;2.80;;;7.10;84.20;;;5.33;100.00;95212.69;4968932;28;20036;-71
2022/11/19 07:13:17;;;;;;;2.92;1.88;;;7.10;84.00;;;5.36;100.00;95217.53;5000967;28;20502;-70
2022/11/19 07:15:43;;;;;;;2.40;1.77;;;7.10;83.90;;;5.36;100.00;95215.72;4968591;28;20036;-70
2022/11/19 07:18:09;;;;;;;3.47;1.90;;;7.20;84.00;;;5.38;100.00;95223.38;4951088;28;20036;-69
2022/11/19 07:20:35;;;;;;;3.97;1.50;;;7.20;83.70;;;5.38;100.00;95221.56;4951014;28;20036;-68
2022/11/19 07:23:01;;;;;;;3.42;1.90;;;7.10;83.60;;;5.40;100.00;95224.81;4957242;28;20040;-69
2022/11/19 07:25:27;;;;;;;3.22;1.40;;;7.20;83.60;;;5.42;100.00;95222.84;4972369;28;20032;-70
2022/11/19 07:27:53;;;;;;;3.75;1.67;;;7.20;83.50;;;5.45;100.00;95227.72;4955717;28;20036;-70
2022/11/19 07:30:19;;;;;;;2.28;1.70;;;7.30;83.30;;;5.47;100.00;95230.16;4972727;28;20426;-69
2022/11/19 07:32:45;;;;;;;4.05;1.70;;;7.30;83.30;;;5.50;100.00;95240.22;4984511;28;20041;-69
2022/11/19 07:35:11;;;;;;;3.90;1.60;;;7.30;83.10;;;5.52;100.00;95233.84;4972675;28;20041;-69
2022/11/19 07:37:37;;;;;;;2.42;1.42;;;7.50;83.20;;;5.57;100.00;95232.47;4951845;28;20504;-68
2022/11/19 07:40:04;;;;;;;2.47;1.50;;;7.50;82.70;;;5.63;100.00;95239.59;4969381;28;20059;-66
2022/11/19 07:42:48;;;;;;;3.38;1.45;;;7.60;82.60;;;5.66;100.00;95234.84;4984957;28;20039;-69
2022/11/19 07:45:19;;;;;;;4.70;1.80;;;7.70;82.40;;;5.75;100.00;95244.19;5004447;28;20033;-65
2022/11/19 07:47:45;;;;;;;1.70;1.10;;;7.80;81.80;;;5.82;100.00;95244.28;4986275;28;20032;-66
2022/11/19 07:50:11;;;;;;;4.00;1.73;;;7.90;81.10;;;5.89;100.00;95239.97;4987657;28;20337;-66
2022/11/19 07:52:37;;;;;;;5.07;1.77;;;8.00;81.20;;;5.98;100.00;95241.50;5021233;28;20582;-66
2022/11/19 07:55:03;;;;;;;3.10;1.75;;;8.10;80.70;;;6.06;100.00;95251.03;4971108;28;20041;-67
2022/11/19 07:57:29;;;;;;;4.32;2.20;;;8.20;80.70;;;6.12;100.00;95235.47;4970482;28;20082;-67
2022/11/19 07:59:55;;;;;;;6.25;2.47;;;8.20;80.40;;;6.20;100.00;95241.56;5003893;28;20389;-68
2022/11/19 08:02:21;;;;;;;3.78;2.20;;;8.20;80.20;;;6.25;100.00;95236.59;4988497;28;20115;-66
2022/11/19 08:04:47;;;;;;;4.38;2.58;;;8.30;80.50;;;6.32;100.00;95235.69;4969754;28;20452;-66
2022/11/19 08:07:13;;;;;;;3.90;2.30;;;8.50;80.20;;;6.43;100.00;95239.63;5002291;28;20417;-69
2022/11/19 08:09:38;;;;;;;3.78;2.50;;;8.60;79.60;;;6.54;100.00;95239.13;4970224;28;20345;-68
2022/11/19 08:12:05;;;;;;;3.20;2.20;;;8.80;78.60;;;6.70;100.00;95241.53;4969711;28;20062;-67
2022/11/19 08:14:30;;;;;;;4.40;1.50;;;9.10;78.10;;;6.84;100.00;95244.28;4986751;28;20028;-68
2022/11/19 08:19:41;;;;;;;3.75;1.70;;;9.40;76.50;;;7.14;100.00;95245.75;4988421;28;20821;-68
2022/11/19 08:22:10;;;;;;;2.60;1.60;;;9.60;77.00;;;7.26;100.00;95241.66;5004320;28;20036;-66
2022/11/19 08:24:36;;;;;;;2.67;1.60;;;9.70;76.50;;;7.38;100.00;95247.97;4986003;28;20093;-66
2022/11/19 08:27:02;;;;;;;2.25;1.42;;;9.70;76.10;;;7.42;100.00;95242.34;4986396;28;20252;-65
2022/11/19 08:29:28;;;;;;;4.88;1.80;;;9.50;75.50;;;7.47;100.00;95246.03;5001934;28;20434;-65
2022/11/19 08:31:54;;;;;;;2.30;1.45;;;9.60;76.10;;;7.55;100.00;95252.91;4984088;28;20160;-67
2022/11/19 08:34:20;;;;;;;2.67;1.58;;;9.70;75.80;;;7.59;100.00;95254.97;4981613;28;20029;-64
2022/11/19 08:36:46;;;;;;;4.68;1.60;;;9.60;75.40;;;7.63;100.00;95245.72;4966587;28;20040;-63
2022/11/19 08:39:12;;;;;;;3.35;1.52;;;9.70;75.20;;;7.67;100.00;95251.38;4967348;28;20369;-64
2022/11/19 08:44:23;;;;;;;2.03;1.20;;;9.60;75.40;;;7.65;100.00;95248.94;4969127;28;20326;-65
2022/11/19 08:46:49;;;;;;;2.80;1.35;;;9.40;76.00;;;7.61;100.00;95254.78;4982617;28;20463;-64
2022/11/19 08:49:15;;;;;;;3.17;1.67;;;9.30;76.70;;;7.61;100.00;95252.16;4981948;28;20037;-64
2022/11/19 08:51:41;;;;;;;3.13;1.50;;;9.40;76.70;;;7.63;100.00;95248.34;4985404;28;20074;-65
2022/11/19 08:54:07;;;;;;;2.40;1.58;;;9.50;77.10;;;7.65;100.00;95256.81;4952399;28;20285;-65
2022/11/19 08:56:33;;;;;;;2.45;1.58;;;9.60;76.10;;;7.70;100.00;95255.44;4970071;28;20314;-65
2022/11/19 08:58:59;;;;;;;6.93;3.53;;;9.70;76.20;;;7.71;100.00;95257.88;4985196;28;20324;-65
2022/11/19 09:01:25;;;;;;;3.92;2.10;;;9.60;76.20;;;7.74;100.00;95257.50;4971737;28;20286;-64
2022/11/19 09:03:51;;;;;;;3.47;1.80;;;9.70;75.70;;;7.78;100.00;95253.47;4943653;28;20371;-65
2022/11/19 09:06:18;;;;;;;2.33;1.55;;;9.80;75.00;;;7.81;100.00;95250.47;4973614;28;20264;-65
2022/11/19 09:08:44;;;;;;;2.17;1.52;;;9.70;74.50;;;7.82;100.00;95259.94;4969858;28;20356;-66
2022/11/19 09:11:15;;;;;;;2.88;1.52;;;9.80;75.30;;;7.88;100.00;95253.94;4950023;28;20549;-65
2022/11/19 09:13:41;;;;;;;3.35;1.67;;;10.00;75.10;;;7.95;100.00;95257.41;4935901;28;20309;-66
2022/11/19 09:16:08;;;;;;;2.03;1.33;;;10.10;73.90;;;8.04;100.00;95258.06;4955465;28;20345;-65
2022/11/19 09:18:37;;;;;;;2.50;1.50;;;10.50;73.80;;;8.17;100.00;95260.75;4976096;28;20113;-65
2022/11/19 09:21:04;;;;;;;3.78;1.95;;;10.80;72.80;;;8.33;100.00;95256.97;5002758;28;20025;-66
2022/11/19 09:23:30;;;;;;;2.95;1.80;;;11.50;71.30;;;8.58;100.00;95260.72;4968111;28;20535;-64
2022/11/19 09:25:58;;;;;;;1.95;1.33;;;12.40;67.00;;;8.80;100.00;95256.16;4953405;28;20032;-66
2022/11/19 09:28:24;;;;;;;4.93;1.85;;;12.30;66.90;;;8.94;100.00;95262.22;4955457;28;20140;-65
2022/11/19 09:31:15;;;;;;;3.88;1.98;;;12.10;66.80;;;9.13;100.00;95263.28;4989846;28;20036;-66
2022/11/19 09:33:44;;;;;;;3.97;2.38;;;12.10;66.80;;;9.21;100.00;95271.75;4928821;28;20159;-66
2022/11/19 09:36:10;;;;;;;3.53;2.00;;;11.90;67.60;;;9.25;100.00;95271.34;4958818;28;20870;-65
2022/11/19 09:38:38;;;;;;;3.40;1.70;;;11.60;68.60;;;9.27;100.00;95274.56;4958177;28;20044;-66
2022/11/19 09:41:46;;;;;;;3.75;1.40;;;11.40;69.50;;;9.21;100.00;95274.38;4948166;28;20359;-66
2022/11/19 09:44:26;;;;;;;4.90;2.67;;;11.20;69.10;;;9.12;100.00;95280.03;4968435;28;20040;-65
2022/11/19 09:47:32;;;;;;;4.55;2.63;;;10.80;69.80;;;9.02;100.00;95283.03;4978106;28;20044;-65
2022/11/19 09:50:13;;;;;;;3.13;2.03;;;10.70;70.60;;;8.92;100.00;95280.00;4977420;28;20045;-64
2022/11/19 09:52:50;;;;;;;4.53;2.97;;;10.60;71.00;;;8.84;100.00;95280.19;4979292;28;20217;-64
2022/11/19 09:55:33;;;;;;;3.67;2.20;;;10.50;71.60;;;8.80;100.00;95282.38;5024174;28;20128;-65
2022/11/19 09:58:01;;;;;;;5.18;2.25;;;10.60;71.40;;;8.79;100.00;95277.31;4932103;28;20587;-65
2022/11/19 10:00:29;;;;;;;4.97;2.75;;;10.70;71.80;;;8.80;100.00;95276.31;4942167;28;20577;-64
2022/11/19 10:02:57;;;;;;;4.70;2.33;;;10.70;71.30;;;8.79;100.00;95277.31;4968053;28;20109;-64
2022/11/19 10:06:14;;;;;;;3.70;2.13;;;10.60;71.20;;;8.79;100.00;95283.38;4970602;28;20041;-64
2022/11/19 10:09:05;;;;;;;4.10;2.45;;;10.50;71.90;;;8.69;100.00;95280.34;4980674;28;20037;-65
2022/11/19 10:12:00;;;;;;;4.72;3.13;;;10.30;72.50;;;8.61;100.00;95284.94;4980238;28;20033;-65
2022/11/19 10:15:17;;;;;;;6.65;4.10;;;10.10;72.90;;;8.52;100.00;95276.44;4988203;28;20135;-65
2022/11/19 10:18:28;;;;;;;3.45;1.92;;;10.10;73.80;;;8.41;100.00;95277.81;4984657;28;20082;-65
2022/11/19 10:21:28;;;;;;;;;;;9.90;74.00;;;8.32;100.00;95276.31;4984814;28;20033;-65
2022/11/19 10:24:07;;;;;;;2.30;1.08;;;9.90;74.40;;;8.27;100.00;95283.97;4961861;28;19916;-66
2022/11/19 10:26:37;;;;;;;2.35;1.50;;;9.90;74.20;;;8.25;100.00;95268.44;4965617;28;20156;-66
2022/11/19 10:29:09;;;;;;;3.10;1.50;;;10.10;74.10;;;8.28;100.00;95280.34;4980115;28;20037;-65
2022/11/19 10:31:36;;;;;;;2.22;1.27;;;10.10;73.80;;;8.29;100.00;95276.72;4963800;28;20045;-66
2022/11/19 10:34:18;;;;;;;2.58;1.60;;;10.00;73.80;;;8.29;100.00;95276.72;4981624;28;20043;-66
2022/11/19 10:37:01;;;;;;;2.28;1.20;;;10.00;74.20;;;8.29;100.00;95282.75;4999479;28;20033;-66
2022/11/19 10:39:31;;;;;;;4.72;1.67;;;10.10;73.80;;;8.28;100.00;95281.13;4969901;28;20559;-65
2022/11/19 10:42:07;;;;;;;3.72;2.35;;;10.10;73.70;;;8.24;100.00;95279.13;4968646;28;20555;-65
2022/11/19 10:44:48;;;;;;;3.58;1.77;;;9.90;73.90;;;8.19;100.00;95273.66;4966525;28;20047;-65
2022/11/19 10:47:28;;;;;;;3.10;1.63;;;9.80;74.30;;;8.13;100.00;95277.03;4983774;28;20215;-64
2022/11/19 10:49:54;;;;;;;3.72;1.45;;;9.70;75.20;;;8.07;100.00;95288.28;4982539;28;20055;-65
2022/11/19 10:52:36;;;;;;;2.30;1.33;;;9.60;76.60;;;7.95;100.00;95283.59;4997506;28;20036;-65
2022/11/19 10:55:23;;;;;;;3.17;1.33;;;9.30;78.10;;;7.86;100.00;95286.53;4969519;28;20037;-65
2022/11/19 10:58:29;;;;;;;2.42;1.48;;;9.30;79.10;;;7.78;100.00;95286.69;5000137;28;20163;-65
2022/11/19 11:00:57;;;;;;;3.10;1.58;;;9.20;79.30;;;7.74;100.00;95278.44;5001703;28;20039;-66